Quick Links (Output Below):   Max & Min Temps   /   Climate Reports   /   Zone Forecasts
River Forecasts   /   Forestry Forecasts   /   Aviation Forecasts   /   Radars   /   Features

Terminal Aerodrome Forecast (Arkadelphia)

Pick a Site:
Arkadelphia | El Dorado | Fayetteville | Fort Smith | Harrison | Highfill | Hot Springs | Jonesboro
Little Rock | Monticello | Mountain Home | Pine Bluff | Texarkana
 Forecast 

KADF 281747Z 2818/2918 24010KT P6SM OVC016
     FM290100 23006KT P6SM SCT100 SCT250
     FM291000 22002KT P6SM FEW012 SCT050 BKN080
     FM291600 24005KT P6SM FEW050 BKN080=


 Latest METARs (Observations) 
How to Decode METARs
17Z KADF 281656Z AUTO 23008KT 10SM OVC012 27/24 A3001 RMK AO2 LTG DSNT
         SW SLP161 T02720239
         
16Z KADF 281556Z AUTO 21008KT 10SM BKN012 OVC024 25/23 A3001 RMK AO2
         SLP163 T02500233
         
15Z KADF 281456Z AUTO 24006KT 10SM FEW012 25/23 A3000 RMK AO2 LTG DSNT
         SW SLP160 T02500233 53005
         
14Z KADF 281356Z AUTO 25006KT 10SM BKN010 25/23 A2999 RMK AO2 SLP156
         T02500233
         
13Z KADF 281256Z AUTO 21004KT 10SM CLR 24/23 A2999 RMK AO2 SLP155
         T02390233
         
12Z KADF 281156Z AUTO 25004KT 6SM BR FEW004 SCT037 23/23 A2998 RMK AO2
         LTG DSNT S AND SW SLP152 70004 T02330228 10239 20228
         51006
         
11Z KADF 281056Z AUTO 20004KT 5SM BR OVC004 23/23 A2997 RMK AO2 SLP148
         T02330228
         
10Z KADF 280956Z AUTO 00000KT 7SM BKN004 OVC090 23/23 A2996 RMK AO2
         SLP145 T02330228
         
09Z KADF 280856Z AUTO 20003KT 5SM BR FEW002 23/23 A2995 RMK AO2 SLP142
         T02330228 50003
         
08Z KADF 280756Z AUTO 00000KT 9SM CLR 23/23 A2996 RMK AO2 SLP145
         T02330228
         
***** Today's Observations (Above) *****


Back to Main Page
http://www.srh.noaa.gov/lzk/qfcst.php

USA.gov is the U.S. government's official web portal to all federal, state and local government web resources and services.